Flight Track Log - Related Links

Times and Time Zones

All times are in EDT time to prevent confusion due to time zone crossing. See the EJA831 flight status page for this flight to view local times or setup timezone preferences in your user account.

Time Position Orientation Groundspeed Altitude Reporting Facility
EDT Latitude Longitude Course Direction KTS MPH feet Rate Location/Type
Fri 09:52:44 AM 38.7486 -104.6914 159° South 213 245 9,300  Level Denver Center
Fri 09:53:46 AM 38.7033 -104.6150 127° Southeast 235 270 12,900 3,073 Climbing Denver Center
Fri 09:54:47 AM 38.6397 -104.6139 179° South 242 278 15,600 2,311 Climbing Denver Center
Fri 09:55:48 AM 38.5672 -104.6261 188° South 267 307 17,600 1,805 Climbing Denver Center
Fri 09:56:50 AM 38.4678 -104.6442 188° South 314 361 19,300 1,561 Climbing Denver Center
Fri 09:57:51 AM 38.3756 -104.6639 190° South 339 390 20,800 1,561 Climbing Denver Center
Fri 09:58:00 AM 38.3007 -104.4253 159° South  Level FlightAware Approximate
Fri 09:58:53 AM 38.3050 -104.7753 231° Southwest 364 419 22,500  Level Denver Center
Fri 09:59:54 AM 38.2550 -104.8781 238° Southwest 361 415 24,100 1,512 Climbing Denver Center
Fri 10:00:56 AM 38.2025 -104.9808 237° Southwest 362 417 25,600 1,610 Climbing Denver Center
Fri 10:01:57 AM 38.1436 -105.1000 238° Southwest 359 413 27,400 1,623 Climbing Denver Center
Fri 10:02:58 AM 38.0931 -105.2025 238° Southwest 359 413 28,900 1,366 Climbing Denver Center
Fri 10:04:00 AM 38.0322 -105.3242 238° Southwest 362 417 30,200 1,220 Climbing Denver Center
Fri 10:05:01 AM 37.9797 -105.4289 238° Southwest 366 421 31,400 1,220 Climbing Denver Center
Fri 10:06:03 AM 37.9164 -105.5542 237° Southwest 373 429 32,700 1,220 Climbing Denver Center
Fri 10:07:04 AM 37.8622 -105.6614 237° Southwest 377 434 33,900 1,122 Climbing Denver Center
Fri 10:08:06 AM 37.8086 -105.7669 237° Southwest 375 432 35,000 1,220 Climbing Denver Center
Fri 10:09:07 AM 37.7475 -105.8875 237° Southwest 366 421 36,400 1,220 Climbing Denver Center
Fri 10:10:09 AM 37.6961 -105.9892 237° Southwest 360 414 37,500 774 Climbing Denver Center
Fri 10:11:11 AM 37.6364 -106.1064 237° Southwest 356 410 38,000 244 Climbing Denver Center
Fri 10:12:12 AM 37.5800 -106.2153 237° Southwest 366 421 38,000  Level Denver Center
Fri 10:13:14 AM 37.5272 -106.3206 238° Southwest 371 427 38,000  Level Denver Center
Fri 10:14:16 AM 37.4681 -106.4461 239° Southwest 374 430 38,000  Level Denver Center
Fri 10:15:17 AM 37.4228 -106.5533 242° Southwest 364 419 38,000  Level Denver Center
Fri 10:16:19 AM 37.3725 -106.6756 243° Southwest 354 407 38,000  Level Denver Center
Fri 10:17:20 AM 37.3367 -106.7611 242° Southwest 348 400 38,000  Level Denver Center
Fri 10:18:22 AM 37.2864 -106.8833 243° Southwest 352 405 38,000  Level Denver Center
Fri 10:19:24 AM 37.2361 -107.0047 243° Southwest 353 406 38,000  Level Denver Center
Fri 10:20:26 AM 37.1931 -107.1094 243° Southwest 352 405 38,000  Level Denver Center
Fri 10:21:28 AM 37.1417 -107.2300 242° Southwest 353 406 38,000  Level Denver Center
Fri 10:22:29 AM 37.0981 -107.3336 242° Southwest 353 406 38,000  Level Denver Center
Fri 10:23:31 AM 37.0469 -107.4544 242° Southwest 351 404 38,000  Level Denver Center
Fri 10:24:33 AM 37.0039 -107.5569 242° Southwest 349 402 38,000  Level Denver Center
Fri 10:25:35 AM 36.9525 -107.6775 242° Southwest 350 403 38,000  Level Denver Center
Fri 10:26:37 AM 36.9086 -107.7800 242° Southwest 352 405 38,000  Level Denver Center
Fri 10:27:39 AM 36.8656 -107.8831 242° Southwest 350 403 38,000  Level Denver Center
Fri 10:28:41 AM 36.8142 -108.0036 242° Southwest 352 405 38,000  Level Denver Center
Fri 10:29:43 AM 36.7692 -108.1078 242° Southwest 357 411 38,000  Level Denver Center
Fri 10:30:45 AM 36.7181 -108.2261 242° Southwest 350 403 38,000  Level Denver Center
Fri 10:31:47 AM 36.6731 -108.3300 242° Southwest 354 407 38,000  Level Denver Center
Fri 10:32:49 AM 36.6203 -108.4511 242° Southwest 356 410 38,000  Level Denver Center
Fri 10:33:51 AM 36.5758 -108.5542 242° Southwest 356 410 38,000  Level Denver Center
Fri 10:34:53 AM 36.5233 -108.6758 242° Southwest 357 411 38,000  Level Denver Center
Fri 10:35:55 AM 36.4786 -108.7792 242° Southwest 356 410 38,000  Level Denver Center
Fri 10:36:57 AM 36.4247 -108.9006 241° Southwest 359 413 38,000  Level Denver Center
Fri 10:37:59 AM 36.3792 -109.0028 241° Southwest 358 412 38,000 -435 Level Denver Center
Fri 10:39:01 AM 36.3250 -109.1253 241° Southwest 364 419 37,100 -871 Descending Denver Center
Fri 10:40:03 AM 36.2753 -109.2358 241° Southwest 381 438 36,200 -1,113 Descending Denver Center
Fri 10:41:05 AM 36.2172 -109.3647 241° Southwest 386 444 34,800 -1,065 Descending Denver Center
Fri 10:42:07 AM 36.1683 -109.4722 241° Southwest 378 435 34,000 -387 Descending Denver Center
Fri 10:43:09 AM 36.1131 -109.5961 241° Southwest 372 428 34,000  Level Denver Center
Fri 10:44:11 AM 36.0642 -109.7011 240° Southwest 368 423 34,000  Level Denver Center
Fri 10:45:13 AM 36.0106 -109.8242 242° Southwest 364 419 34,000  Level Denver Center
Fri 10:46:15 AM 35.9633 -109.9278 241° Southwest 365 420 34,000  Level Denver Center
Fri 10:47:17 AM 35.9050 -110.0500 240° Southwest 367 422 34,000  Level Denver Center
Fri 10:48:19 AM 35.8597 -110.1508 241° Southwest 366 421 34,000  Level Denver Center
Fri 10:48:46 AM 35.8328 -110.2067 239° Southwest 368 423 34,000  Level Albuquerque Center
Fri 10:49:48 AM 35.7828 -110.3108 239° Southwest 369 425 34,000  Level Albuquerque Center
Fri 10:50:50 AM 35.7272 -110.4336 241° Southwest 369 425 34,000  Level Albuquerque Center
Fri 10:51:52 AM 35.6786 -110.5392 240° Southwest 369 425 34,000 -532 Level Albuquerque Center
Fri 10:52:54 AM 35.6194 -110.6628 240° Southwest 374 430 32,900 -1,113 Descending Albuquerque Center
Fri 10:53:56 AM 35.5678 -110.7747 240° Southwest 389 448 31,700 -1,306 Descending Albuquerque Center
Fri 10:54:58 AM 35.5072 -110.9064 241° Southwest 395 455 30,200 -1,306 Descending Albuquerque Center
Fri 10:56:00 AM 35.4547 -111.0192 240° Southwest 397 457 29,000 -1,306 Descending Albuquerque Center
Fri 10:57:02 AM 35.3764 -111.1300 229° Southwest 388 447 27,500 -1,403 Descending Albuquerque Center
Fri 10:58:04 AM 35.2808 -111.1961 209° Southwest 388 447 26,100 -1,355 Descending Albuquerque Center
Fri 10:59:06 AM 35.1889 -111.2581 209° Southwest 381 438 24,700 -1,355 Descending Albuquerque Center
Fri 11:00:08 AM 35.0953 -111.3222 209° Southwest 384 442 23,300 -1,306 Descending Albuquerque Center
Fri 11:01:10 AM 35.0028 -111.3842 209° Southwest 382 440 22,000 -629 Descending Albuquerque Center
Fri 11:02:12 AM 34.9097 -111.4469 209° Southwest 381 438 22,000  Level Albuquerque Center
Fri 11:03:14 AM 34.8164 -111.5094 209° Southwest 383 441 22,000 -145 Level Albuquerque Center
Fri 11:04:16 AM 34.7056 -111.5839 209° Southwest 380 437 21,700 -919 Descending Albuquerque Center
Fri 11:05:18 AM 34.6144 -111.6469 210° Southwest 379 436 20,100 -1,403 Descending Albuquerque Center
Fri 11:06:20 AM 34.5247 -111.7061 209° Southwest 373 429 18,800 -1,403 Descending Albuquerque Center
Fri 11:07:22 AM 34.4375 -111.7639 209° Southwest 363 418 17,200 -1,790 Descending Albuquerque Center
Fri 11:08:24 AM 34.3536 -111.8194 209° Southwest 351 404 15,100 -2,274 Descending Albuquerque Center
Fri 11:09:26 AM 34.2581 -111.8825 209° Southwest 334 384 12,500 -1,984 Descending Albuquerque Center
Fri 11:10:28 AM 34.1889 -111.9211 205° Southwest 282 325 11,000 -774 Descending Albuquerque Center
Fri 11:11:30 AM 34.1117 -111.9272 184° South 279 321 10,900 -194 Descending Albuquerque Center
Fri 11:12:32 AM 34.0336 -111.9311 182° South 284 327 10,600 -919 Descending Albuquerque Center
Fri 11:13:34 AM 33.9569 -111.9361 183° South 280 322 9,000 -1,694 Descending Albuquerque Center
Fri 11:14:36 AM 33.8722 -111.9419 183° South 260 299 7,100 -1,016 Descending Albuquerque Center
Fri 11:15:38 AM 33.8031 -111.9461 183° South 252 290 6,900 -823 Descending Albuquerque Center
Fri 11:16:40 AM 33.7350 -111.9503 183° South 248 285 5,400 -1,200 Descending Albuquerque Center
Fri 11:17:43 AM 33.6808 -111.9542 183° South 198 228 4,400 -1,008 Descending Albuquerque Center
Fri 11:18:45 AM 33.6358 -111.9636 190° South 168 193 3,300 -1,149 Descending Albuquerque Center
Fri 11:19:17 AM 33.6167 -111.9833 221° Southwest 141 162 2,600 -903 Descending Phoenix TRACON
Fri 11:20:18 AM 33.6000 -111.9500 121° Southeast 136 157 1,900 -506 Descending Phoenix TRACON
Fri 11:21:51 AM 33.6275 -111.9044 54° Northeast 130 150 1,300 -387 Descending Albuquerque Center
Fri 11:23:00 AM 33.6167 -111.9000 North  Level FlightAware Approximate

Login

Don't have an account? Register now (free) for customized features, flight alerts, and more!